Meteorología y climatología de Navarra
Datos de la estación - Meteo Navarra

Estación de Getadar GN

Altitud 710 m.


Datos desde el 15/02/2020 hasta el 16/02/2020 en horario solar
Los datos son PROVISIONALES

Anterior Página 1 de 1 Siguiente Descargar: Formato para Excel 2000 o superior   Formato csv   Formato para OpenOffice Calc
Fecha Temperatura Humedad relativa Radiación global Insolación Precipitación Vel. viento 10 m Vel. viento 10 m Dir. viento 10 m
ºC % W/m² s l/m² m/s km/h º
15/02/2020 0:00 6.1 84 0.0 0 0.0 1.8 6.4 9
15/02/2020 0:10 5.7 86 0.0 0 0.0 1.6 5.8 358
15/02/2020 0:20 5.5 87 0.0 0 0.0 1.7 6.2 1
15/02/2020 0:30 5.7 86 0.0 0 0.0 1.5 5.4 12
15/02/2020 0:40 5.6 86 0.0 0 0.0 0.7 2.6 13
15/02/2020 0:50 5.3 87 0.0 0 0.0 0.6 2.0 354
15/02/2020 1:00 5.0 89 0.0 0 0.0 1.4 4.9 2
15/02/2020 1:10 5.1 88 0.0 0 0.0 1.3 4.7 1
15/02/2020 1:20 4.9 89 0.0 0 0.0 1.4 4.9 8
15/02/2020 1:30 4.7 90 0.0 0 0.0 1.1 4.0 9
15/02/2020 1:40 4.6 90 0.0 0 0.0 1.3 4.8 358
15/02/2020 1:50 4.6 90 0.0 0 0.0 1.4 4.9 355
15/02/2020 2:00 4.5 90 0.0 0 0.0 1.4 5.1 5
15/02/2020 2:10 4.3 90 0.0 0 0.0 1.7 6.0 14
15/02/2020 2:20 4.3 90 0.0 0 0.0 1.0 3.5 13
15/02/2020 2:30 4.0 91 0.0 0 0.0 1.4 5.1 353
15/02/2020 2:40 4.0 92 0.0 0 0.0 1.6 5.9 358
15/02/2020 2:50 3.9 93 0.0 0 0.0 1.6 5.9 0
15/02/2020 3:00 4.1 92 0.0 0 0.0 1.4 4.9 352
15/02/2020 3:10 4.2 91 0.0 0 0.0 1.6 5.7 358
15/02/2020 3:20 4.2 91 0.0 0 0.0 1.6 5.7 5
15/02/2020 3:30 4.0 91 0.0 0 0.0 2.0 7.3 9
15/02/2020 3:40 4.0 92 0.0 0 0.0 1.1 3.9 11
15/02/2020 3:50 4.2 91 0.0 0 0.0 1.1 4.0 12
15/02/2020 4:00 4.1 92 0.0 0 0.0 0.9 3.4 9
15/02/2020 4:10 4.5 90 0.0 0 0.0 0.0 0.0 0
15/02/2020 4:20 4.3 91 0.0 0 0.0 0.0 0.0 0
15/02/2020 4:30 4.1 92 0.0 0 0.0 0.7 2.4 353
15/02/2020 4:40 4.5 90 0.0 0 0.0 0.0 0.0 0
15/02/2020 4:50 4.5 89 0.0 0 0.0 0.0 0.0 351
15/02/2020 5:00 3.4 93 0.0 0 0.0 2.0 7.0 1
15/02/2020 5:10 3.5 94 0.0 0 0.0 1.8 6.5 9
15/02/2020 5:20 3.6 93 0.0 0 0.0 1.6 5.6 3
15/02/2020 5:30 3.7 93 0.0 0 0.0 1.5 5.2 3
15/02/2020 5:40 3.7 93 0.0 0 0.0 1.6 5.7 3
15/02/2020 5:50 3.7 93 0.0 0 0.0 1.2 4.4 354
15/02/2020 6:00 3.6 93 0.0 0 0.0 1.2 4.2 355
15/02/2020 6:10 3.6 93 0.0 0 0.0 1.1 3.8 2
15/02/2020 6:20 3.2 94 0.0 0 0.0 2.0 7.0 3
15/02/2020 6:30 3.1 95 0.0 0 0.0 1.9 6.9 359
15/02/2020 6:40 3.5 94 0.0 0 0.0 1.8 6.5 4
15/02/2020 6:50 3.8 93 0.0 0 0.0 1.5 5.3 8
15/02/2020 7:00 3.8 91 0.0 0 0.0 1.5 5.3 2
15/02/2020 7:10 3.9 92 8.4 0 0.0 0.4 1.3 359
15/02/2020 7:20 3.7 92 21.5 0 0.0 0.6 2.2 7
15/02/2020 7:30 3.5 93 44.9 558 0.0 1.3 4.7 357
15/02/2020 7:40 4.3 91 68.2 600 0.0 0.4 1.4 5
15/02/2020 7:50 4.2 91 93.2 600 0.0 1.3 4.6 12
15/02/2020 8:00 4.4 91 119.3 600 0.0 1.0 3.5 11
15/02/2020 8:10 4.7 90 146.3 600 0.0 0.7 2.3 12
15/02/2020 8:20 5.7 85 174.2 600 0.0 0.0 0.0 0
15/02/2020 8:30 6.1 83 201.4 600 0.0 0.0 0.0 0
15/02/2020 8:40 7.3 80 228.8 600 0.0 0.0 0.0 0
15/02/2020 8:50 7.8 77 258.1 600 0.0 0.0 0.0 189
15/02/2020 9:00 8.2 78 284.5 600 0.0 0.0 0.0 167
15/02/2020 9:10 8.5 76 312.3 600 0.0 0.5 1.7 151
15/02/2020 9:20 8.9 73 336.8 600 0.0 0.2 0.6 144
15/02/2020 9:30 8.8 75 362.8 600 0.0 0.5 1.9 163
15/02/2020 9:40 8.8 75 387.3 600 0.0 1.0 3.7 194
15/02/2020 9:50 9.6 74 409.0 600 0.0 0.1 0.3 169
15/02/2020 10:00 10.1 71 431.3 600 0.0 0.4 1.4 187
15/02/2020 10:10 10.3 71 453.0 600 0.0 1.4 4.9 194
15/02/2020 10:20 10.5 71 473.7 600 0.0 1.9 6.7 166
15/02/2020 10:30 10.8 71 494.2 600 0.0 3.0 10.7 179
15/02/2020 10:40 10.9 71 513.1 600 0.0 3.3 11.8 183
15/02/2020 10:50 10.8 71 530.1 600 0.0 3.0 10.6 176
15/02/2020 11:00 11.0 71 544.2 600 0.0 3.4 12.2 179
15/02/2020 11:10 11.3 70 558.7 600 0.0 3.2 11.5 169
15/02/2020 11:20 11.9 69 569.5 600 0.0 2.7 9.7 192
15/02/2020 11:30 11.7 69 580.0 600 0.0 3.3 11.8 180
15/02/2020 11:40 12.1 67 589.3 600 0.0 3.5 12.6 177
15/02/2020 11:50 11.9 67 596.9 600 0.0 3.8 13.5 184
15/02/2020 12:00 12.3 66 603.4 600 0.0 3.3 11.9 173
15/02/2020 12:10 12.8 65 605.4 600 0.0 3.4 12.3 173
15/02/2020 12:20 12.6 64 607.9 600 0.0 3.2 11.4 170
15/02/2020 12:30 12.9 64 609.5 600 0.0 3.8 13.8 175
15/02/2020 12:40 12.8 65 609.9 600 0.0 3.7 13.1 173
15/02/2020 12:50 13.1 64 614.6 600 0.0 3.2 11.6 170
15/02/2020 13:00 13.3 64 582.7 600 0.0 3.2 11.6 170
15/02/2020 13:10 13.2 64 510.7 600 0.0 3.5 12.5 168
15/02/2020 13:20 13.7 64 598.8 600 0.0 2.3 8.3 150
15/02/2020 13:30 13.5 65 426.9 600 0.0 2.7 9.7 149
15/02/2020 13:40 13.1 67 298.1 292 0.0 2.5 8.9 160
15/02/2020 13:50 13.1 67 434.2 600 0.0 3.0 10.8 168
15/02/2020 14:00 13.3 67 399.6 600 0.0 2.3 8.4 161
15/02/2020 14:10 13.4 65 389.0 600 0.0 3.2 11.4 175
15/02/2020 14:20 13.3 65 339.8 600 0.0 2.7 9.8 167
15/02/2020 14:30 13.3 64 375.0 600 0.0 2.8 10.1 180
15/02/2020 14:40 13.3 63 342.9 600 0.0 2.7 9.7 191
15/02/2020 14:50 13.2 62 325.6 600 0.0 2.4 8.5 187
15/02/2020 15:00 13.2 63 241.8 580 0.0 1.9 6.9 174
15/02/2020 15:10 13.2 64 219.7 424 0.0 1.2 4.3 171
15/02/2020 15:20 13.2 64 193.3 124 0.0 0.9 3.1 170
15/02/2020 15:30 13.0 65 176.2 2 0.0 1.2 4.2 159
15/02/2020 15:40 13.0 65 163.6 80 0.0 1.9 6.7 168
15/02/2020 15:50 12.9 64 140.8 0 0.0 2.3 8.4 178
15/02/2020 16:00 12.8 66 137.3 0 0.0 0.7 2.6 143
15/02/2020 16:10 12.8 68 116.9 0 0.0 0.9 3.3 149
15/02/2020 16:20 12.7 67 96.0 0 0.0 1.1 4.0 170
15/02/2020 16:30 12.5 70 76.4 0 0.0 0.6 2.0 150
15/02/2020 16:40 12.4 70 63.9 0 0.0 1.2 4.5 158
15/02/2020 16:50 12.4 70 49.9 0 0.0 2.4 8.7 165
15/02/2020 17:00 12.2 72 38.3 0 0.0 1.6 5.7 171
15/02/2020 17:10 12.2 72 30.1 0 0.0 2.1 7.5 182
15/02/2020 17:20 12.3 71 22.9 0 0.0 1.6 5.8 189
15/02/2020 17:30 12.0 73 17.8 0 0.0 1.9 6.9 178
15/02/2020 17:40 11.7 75 4.4 0 0.0 1.5 5.5 180
15/02/2020 17:50 11.9 74 0.0 0 0.0 1.7 6.0 183
15/02/2020 18:00 11.9 73 0.0 0 0.0 1.9 6.8 182
15/02/2020 18:10 11.7 74 0.0 0 0.0 1.1 4.1 173
15/02/2020 18:20 11.1 77 0.0 0 0.0 0.8 2.9 174
15/02/2020 18:30 10.5 80 0.0 0 0.0 0.1 0.4 40
15/02/2020 18:40 10.1 82 0.0 0 0.0 0.2 0.6 4
15/02/2020 18:50 10.1 81 0.0 0 0.0 0.0 0.0 0
15/02/2020 19:00 9.8 83 0.0 0 0.0 0.1 0.3 8
15/02/2020 19:10 10.1 81 0.0 0 0.0 0.0 0.0 0
15/02/2020 19:20 9.6 83 0.0 0 0.0 0.0 0.0 116
15/02/2020 19:30 9.2 85 0.0 0 0.0 0.5 1.7 179
15/02/2020 19:40 9.3 84 0.0 0 0.0 0.5 1.6 179
15/02/2020 19:50 9.3 84 0.0 0 0.0 0.0 0.1 174
15/02/2020 20:00 9.0 85 0.0 0 0.0 0.1 0.5 159
15/02/2020 20:10 8.9 86 0.0 0 0.0 0.0 0.1 105
15/02/2020 20:20 9.0 86 0.0 0 0.0 0.2 0.5 150
15/02/2020 20:30 9.4 84 0.0 0 0.0 0.0 0.1 161
15/02/2020 20:40 9.6 82 0.0 0 0.0 0.1 0.3 125
15/02/2020 20:50 9.5 82 0.0 0 0.0 0.1 0.4 159
15/02/2020 21:00 9.1 83 0.0 0 0.0 0.1 0.3 148
15/02/2020 21:10 9.2 83 0.0 0 0.0 0.0 0.1 133
15/02/2020 21:20 8.5 86 0.0 0 0.0 0.0 0.1 14
15/02/2020 21:30 8.0 89 0.0 0 0.0 1.1 4.0 359
15/02/2020 21:40 8.4 87 0.0 0 0.0 0.4 1.5 334
15/02/2020 21:50 8.4 86 0.0 0 0.0 0.8 2.8 351
15/02/2020 22:00 8.1 87 0.0 0 0.0 1.2 4.3 5
15/02/2020 22:10 8.6 84 0.0 0 0.0 0.2 0.6 12
15/02/2020 22:20 8.8 82 0.0 0 0.0 0.0 0.0 0
15/02/2020 22:30 8.2 85 0.0 0 0.0 0.6 2.3 336
15/02/2020 22:40 8.1 85 0.0 0 0.0 1.2 4.4 347
15/02/2020 22:50 8.5 83 0.0 0 0.0 0.9 3.4 9
15/02/2020 23:00 8.7 80 0.0 0 0.0 0.1 0.2 127
15/02/2020 23:10 8.3 82 0.0 0 0.0 1.1 4.1 167
15/02/2020 23:20 8.6 80 0.0 0 0.0 1.5 5.3 166
15/02/2020 23:30 9.2 78 0.0 0 0.0 2.8 10.0 174
15/02/2020 23:40 9.3 77 0.0 0 0.0 2.1 7.6 169
15/02/2020 23:50 8.9 79 0.0 0 0.0 0.5 1.8 152
Anterior Página 1 de 1 Siguiente

NOTA: Tipo de datos según el color:
   - Valores diarios o 10 minutos correctos
   - Valores diarios calculados a partir de un número de datos 10 minutos menor que 144 y mayor que 120, o de un número de datos semihorarios menor que 48 y mayor que 40 (caso de las estaciones de INTIA y del Ministerio)
   - Valores diez minutos estimados


Contacto        Enlaces        Aviso legal